createdAt,value
2022-10-23T00:01:09.010Z,99.993896
2022-10-23T00:02:16.780Z,99.993896
2022-10-23T00:03:26.394Z,99.993896
2022-10-23T00:04:35.236Z,99.993896
2022-10-23T00:05:44.942Z,99.993896
2022-10-23T00:06:53.650Z,99.993896
2022-10-23T00:08:02.364Z,99.993896
2022-10-23T00:09:12.087Z,99.993896
2022-10-23T00:10:20.812Z,99.993896
2022-10-23T00:11:29.490Z,99.993896
2022-10-23T00:12:39.385Z,99.993896
2022-10-23T00:13:47.901Z,99.993896
2022-10-23T00:14:57.616Z,99.993896
2022-10-23T00:16:07.332Z,99.993896
2022-10-23T00:17:15.025Z,99.993896
2022-10-23T00:18:24.753Z,99.993896
2022-10-23T00:19:34.492Z,99.993896
2022-10-23T00:20:44.229Z,99.993896
2022-10-23T00:21:53.950Z,99.993896
2022-10-23T00:23:02.711Z,99.993896
2022-10-23T00:24:11.590Z,99.993896
2022-10-23T00:25:21.289Z,99.993896
2022-10-23T00:26:30.996Z,99.993896
2022-10-23T00:27:41.071Z,99.993896
2022-10-23T00:28:48.452Z,99.993896
2022-10-23T00:29:57.163Z,99.993896
2022-10-23T00:31:06.878Z,99.993896
2022-10-23T00:32:16.650Z,99.993896
2022-10-23T00:33:25.319Z,99.993896
2022-10-23T00:34:33.980Z,99.993896
2022-10-23T00:35:42.654Z,99.993896
2022-10-23T00:36:52.387Z,99.993896
2022-10-23T00:38:01.103Z,99.993896
2022-10-23T00:39:10.912Z,99.993896
2022-10-23T00:40:19.583Z,99.993896
2022-10-23T00:41:28.655Z,99.993896
2022-10-23T00:42:37.309Z,99.993896
2022-10-23T00:43:46.059Z,99.993896
2022-10-23T00:44:55.752Z,99.993896
2022-10-23T00:46:05.490Z,99.993896
2022-10-23T00:47:14.230Z,99.993896
2022-10-23T00:48:23.999Z,99.993896
2022-10-23T00:49:34.480Z,99.993896
2022-10-23T00:50:43.413Z,99.993896
2022-10-23T00:51:52.127Z,99.993896
2022-10-23T00:53:00.889Z,99.993896
2022-10-23T00:54:23.257Z,99.993896
2022-10-23T00:55:21.244Z,99.993896
2022-10-23T00:56:28.955Z,99.993896
2022-10-23T00:57:38.649Z,99.993896
2022-10-23T00:58:46.339Z,99.993896
2022-10-23T00:59:55.014Z,99.993896
2022-10-23T01:01:04.879Z,99.993896
2022-10-23T01:02:13.537Z,99.993896
2022-10-23T01:03:23.161Z,99.993896
2022-10-23T01:04:31.963Z,99.993896
2022-10-23T01:05:40.704Z,99.993896
2022-10-23T01:06:51.384Z,99.993896
2022-10-23T01:07:59.101Z,99.993896
2022-10-23T01:09:07.768Z,99.993896
2022-10-23T01:10:17.610Z,99.993896
2022-10-23T01:11:27.281Z,99.993896
2022-10-23T01:12:34.955Z,99.993896
2022-10-23T01:13:43.732Z,99.993896
2022-10-23T01:14:52.427Z,99.993896
2022-10-23T01:16:02.226Z,99.993896
2022-10-23T01:17:09.930Z,99.993896
2022-10-23T01:18:17.629Z,99.993896
2022-10-23T01:19:27.408Z,99.993896
2022-10-23T01:20:37.106Z,99.993896
2022-10-23T01:21:46.811Z,99.993896
2022-10-23T01:22:55.556Z,99.993896
2022-10-23T01:24:04.265Z,99.993896
2022-10-23T01:25:13.940Z,99.993896
2022-10-23T01:26:22.824Z,99.993896
2022-10-23T01:27:32.540Z,99.993896
2022-10-23T01:28:42.257Z,99.993896
2022-10-23T01:29:50.965Z,99.993896
2022-10-23T01:31:00.706Z,99.993896
2022-10-23T01:32:09.462Z,99.993896
2022-10-23T01:33:19.249Z,99.993896
2022-10-23T01:34:28.942Z,99.993896
2022-10-23T01:35:37.646Z,99.993896
2022-10-23T01:36:45.339Z,99.993896
2022-10-23T01:37:55.005Z,99.993896
2022-10-23T01:40:11.473Z,99.993896
2022-10-23T01:41:20.145Z,99.993896
2022-10-23T01:42:29.851Z,99.993896
2022-10-23T01:43:39.521Z,99.993896
2022-10-23T01:44:48.358Z,99.993896
2022-10-23T01:45:57.152Z,99.993896
2022-10-23T01:47:06.895Z,99.993896
2022-10-23T01:48:16.577Z,99.993896
2022-10-23T01:49:25.268Z,99.993896
2022-10-23T01:50:35.031Z,99.993896
2022-10-23T01:51:43.715Z,99.993896
2022-10-23T01:52:53.458Z,99.993896
2022-10-23T01:54:03.148Z,99.993896
2022-10-23T01:55:11.853Z,99.993896
2022-10-23T01:56:21.655Z,99.993896
2022-10-23T01:57:31.457Z,99.993896
2022-10-23T01:58:41.269Z,99.993896
2022-10-23T01:59:50.980Z,99.993896
2022-10-23T02:00:59.687Z,99.993896
2022-10-23T02:02:09.510Z,99.993896
2022-10-23T02:03:18.131Z,99.993896
2022-10-23T02:04:26.801Z,99.993896
2022-10-23T02:05:36.524Z,99.993896
2022-10-23T02:06:45.264Z,99.993896
2022-10-23T02:07:55.014Z,99.993896
2022-10-23T02:09:03.739Z,99.993896
2022-10-23T02:10:13.393Z,99.993896
2022-10-23T02:11:23.097Z,99.993896
2022-10-23T02:12:32.811Z,99.993896
2022-10-23T02:13:41.534Z,99.993896
2022-10-23T02:14:51.208Z,99.993896
2022-10-23T02:15:59.906Z,99.993896
2022-10-23T02:17:08.597Z,99.993896
2022-10-23T02:18:17.303Z,99.993896
2022-10-23T02:19:26.010Z,99.993896
2022-10-23T02:20:35.759Z,99.993896
2022-10-23T02:21:43.404Z,99.993896
2022-10-23T02:22:52.119Z,99.993896
2022-10-23T02:24:01.848Z,99.993896
2022-10-23T02:25:11.599Z,99.993896
2022-10-23T02:26:20.263Z,99.993896
2022-10-23T02:27:28.946Z,99.993896
2022-10-23T02:28:38.647Z,99.993896
2022-10-23T02:29:48.352Z,99.993896
2022-10-23T02:30:56.035Z,99.993896
2022-10-23T02:32:04.757Z,99.993896
2022-10-23T02:33:13.449Z,99.993896
2022-10-23T02:34:22.202Z,99.993896
2022-10-23T02:35:31.923Z,99.993896
2022-10-23T02:36:40.629Z,99.993896
2022-10-23T02:37:49.315Z,99.993896
2022-10-23T02:38:59.013Z,99.993896
2022-10-23T02:40:07.682Z,99.993896
2022-10-23T02:41:17.386Z,99.993896
2022-10-23T02:42:27.213Z,99.993896
2022-10-23T02:43:35.910Z,99.993896
2022-10-23T02:44:45.604Z,99.993896
2022-10-23T02:45:54.335Z,99.993896
2022-10-23T02:47:03.021Z,99.993896
2022-10-23T02:48:12.785Z,99.993896
2022-10-23T02:49:22.431Z,99.993896
2022-10-23T02:50:34.192Z,99.993896
2022-10-23T02:51:44.285Z,99.993896
2022-10-23T02:52:53.716Z,99.993896
2022-10-23T02:54:05.546Z,99.993896
2022-10-23T02:55:15.265Z,99.993896
2022-10-23T02:56:23.989Z,99.993896
2022-10-23T02:57:33.613Z,99.993896
2022-10-23T02:58:42.313Z,99.993896
2022-10-23T02:59:50.106Z,99.993896
2022-10-23T03:00:59.830Z,99.993896
2022-10-23T03:02:08.720Z,99.993896
2022-10-23T03:03:16.275Z,99.993896
2022-10-23T03:04:25.980Z,99.993896
2022-10-23T03:05:34.802Z,99.993896
2022-10-23T03:06:44.486Z,99.993896
2022-10-23T03:07:53.226Z,99.993896
2022-10-23T03:09:01.908Z,99.993896
2022-10-23T03:10:11.627Z,99.993896
2022-10-23T03:11:20.356Z,99.993896
2022-10-23T03:12:30.050Z,99.993896
2022-10-23T03:13:39.688Z,99.993896
2022-10-23T03:14:48.408Z,99.993896
2022-10-23T03:15:57.128Z,99.993896
2022-10-23T03:17:05.855Z,99.993896
2022-10-23T03:18:13.545Z,99.993896
2022-10-23T03:19:22.257Z,99.993896
2022-10-23T03:20:30.941Z,99.993896
2022-10-23T03:21:38.635Z,99.993896
2022-10-23T03:22:48.353Z,99.993896
2022-10-23T03:23:58.117Z,99.993896
2022-10-23T03:25:07.854Z,99.993896
2022-10-23T03:26:17.605Z,99.993896
2022-10-23T03:27:26.354Z,99.993896
2022-10-23T03:28:35.070Z,99.993896
2022-10-23T03:29:43.713Z,99.993896
2022-10-23T03:30:53.413Z,99.993896
2022-10-23T03:32:01.107Z,99.993896
2022-10-23T03:33:09.825Z,99.993896
2022-10-23T03:34:19.555Z,99.993896
2022-10-23T03:35:29.271Z,99.993896
2022-10-23T03:36:37.997Z,99.993896
2022-10-23T03:37:47.768Z,99.993896
2022-10-23T03:38:57.503Z,99.993896
2022-10-23T03:40:07.236Z,99.993896
2022-10-23T03:41:14.899Z,99.993896
2022-10-23T03:42:22.629Z,99.993896
2022-10-23T03:43:32.363Z,99.993896
2022-10-23T03:44:42.074Z,99.993896
2022-10-23T03:45:51.875Z,99.993896
2022-10-23T03:47:00.580Z,99.993896
2022-10-23T03:48:09.268Z,99.993896
2022-10-23T03:49:19.083Z,99.993896
2022-10-23T03:50:28.761Z,99.993896
2022-10-23T03:51:37.588Z,99.993896
2022-10-23T03:52:47.316Z,99.993896
2022-10-23T03:53:55.991Z,99.993896
2022-10-23T03:55:04.658Z,99.993896
2022-10-23T03:56:14.367Z,99.993896
2022-10-23T03:57:23.088Z,99.993896
2022-10-23T03:58:32.813Z,99.993896
2022-10-23T03:59:40.502Z,99.993896
2022-10-23T04:00:49.395Z,99.993896
2022-10-23T04:01:59.187Z,99.993896
2022-10-23T04:03:07.911Z,99.993896
2022-10-23T04:04:16.687Z,99.993896
2022-10-23T04:05:25.572Z,99.993896
2022-10-23T04:06:34.386Z,99.993896
2022-10-23T04:07:44.093Z,99.993896
2022-10-23T04:08:51.907Z,99.993896
2022-10-23T04:10:00.584Z,99.993896
2022-10-23T04:11:10.338Z,99.993896
2022-10-23T04:12:20.033Z,99.993896
2022-10-23T04:13:28.747Z,99.993896
2022-10-23T04:14:36.466Z,99.993896
2022-10-23T04:15:45.200Z,99.993896
2022-10-23T04:16:55.903Z,99.993896
2022-10-23T04:18:04.570Z,99.993896
2022-10-23T04:19:12.265Z,99.993896
2022-10-23T04:20:21.965Z,99.993896
2022-10-23T04:21:31.650Z,99.993896
2022-10-23T04:22:41.714Z,99.993896
2022-10-23T04:23:50.202Z,99.993896
2022-10-23T04:24:58.869Z,99.993896
2022-10-23T04:26:08.616Z,99.993896
2022-10-23T04:27:16.298Z,99.993896
2022-10-23T04:28:24.997Z,99.993896
2022-10-23T04:29:34.703Z,99.993896
2022-10-23T04:30:43.413Z,99.993896
2022-10-23T04:31:52.153Z,99.993896
2022-10-23T04:33:01.904Z,99.993896
2022-10-23T04:34:10.556Z,99.993896
2022-10-23T04:35:20.241Z,99.993896
2022-10-23T04:36:28.938Z,99.993896
2022-10-23T04:37:36.697Z,99.993896
2022-10-23T04:38:45.406Z,99.993896
2022-10-23T04:39:54.076Z,99.993896
2022-10-23T04:41:02.769Z,99.993896
2022-10-23T04:42:10.469Z,99.993896
2022-10-23T04:43:20.201Z,99.993896
2022-10-23T04:44:29.988Z,99.993896
2022-10-23T04:45:39.674Z,99.993896
2022-10-23T04:46:48.359Z,99.993896
2022-10-23T04:47:58.238Z,99.993896
2022-10-23T04:49:06.915Z,99.993896
2022-10-23T04:50:16.601Z,99.993896
2022-10-23T04:51:26.301Z,99.993896
2022-10-23T04:52:35.017Z,99.993896
2022-10-23T04:53:44.710Z,99.993896
2022-10-23T04:54:53.563Z,99.993896
2022-10-23T04:56:01.331Z,99.993896
2022-10-23T04:57:11.025Z,99.993896
2022-10-23T04:58:19.974Z,99.993896
2022-10-23T04:59:29.545Z,99.993896
2022-10-23T05:00:39.307Z,99.993896
2022-10-23T05:01:48.012Z,99.993896
2022-10-23T05:02:56.619Z,99.993896
2022-10-23T05:04:06.305Z,99.993896
2022-10-23T05:05:15.007Z,99.993896
2022-10-23T05:06:24.739Z,99.993896
2022-10-23T05:07:34.451Z,99.993896
2022-10-23T05:08:43.112Z,99.993896
2022-10-23T05:09:51.828Z,99.993896
2022-10-23T05:11:01.500Z,99.993896
2022-10-23T05:12:11.219Z,99.993896
2022-10-23T05:13:20.928Z,99.993896
2022-10-23T05:14:29.671Z,99.993896
2022-10-23T05:15:39.458Z,99.993896
2022-10-23T05:16:48.186Z,99.993896
2022-10-23T05:17:57.921Z,99.993896
2022-10-23T05:19:06.626Z,99.993896
2022-10-23T05:20:15.354Z,99.993896
2022-10-23T05:21:25.138Z,99.993896
2022-10-23T05:22:34.202Z,99.993896
2022-10-23T05:23:44.051Z,99.993896
2022-10-23T05:24:53.801Z,99.993896
2022-10-23T05:26:02.557Z,99.993896
2022-10-23T05:27:12.290Z,99.993896
2022-10-23T05:28:20.989Z,99.993896
2022-10-23T05:29:29.953Z,99.993896
2022-10-23T05:30:37.679Z,99.993896
2022-10-23T05:31:47.378Z,99.993896
2022-10-23T05:32:57.091Z,99.993896
2022-10-23T05:34:05.618Z,99.993896
2022-10-23T05:35:14.605Z,99.993896
2022-10-23T05:36:24.297Z,99.993896
2022-10-23T05:37:33.070Z,99.993896
2022-10-23T05:38:42.818Z,99.993896
2022-10-23T05:39:51.524Z,99.993896
2022-10-23T05:41:00.367Z,99.993896
2022-10-23T05:42:10.150Z,99.993896
2022-10-23T05:43:18.818Z,99.993896
2022-10-23T05:44:27.500Z,99.993896
2022-10-23T05:45:37.195Z,99.993896
2022-10-23T05:46:45.984Z,99.993896
2022-10-23T05:48:01.405Z,99.993896
2022-10-23T05:49:06.479Z,99.993896
2022-10-23T05:50:16.172Z,99.993896
2022-10-23T05:51:25.841Z,99.993896
2022-10-23T05:52:33.549Z,99.993896
2022-10-23T05:53:43.221Z,99.993896
2022-10-23T05:54:52.928Z,99.993896
2022-10-23T05:56:02.713Z,99.993896
2022-10-23T05:57:12.439Z,99.993896
2022-10-23T05:58:21.216Z,99.993896
2022-10-23T05:59:29.943Z,99.993896
2022-10-23T06:00:39.655Z,99.993896
2022-10-23T06:01:48.447Z,99.993896
2022-10-23T06:02:57.022Z,99.993896
2022-10-23T06:04:06.744Z,99.993896
2022-10-23T06:05:15.411Z,99.993896
2022-10-23T06:06:24.090Z,99.993896
2022-10-23T06:07:33.749Z,99.993896
2022-10-23T06:08:41.409Z,99.993896
2022-10-23T06:09:50.254Z,99.993896
2022-10-23T06:10:58.891Z,99.993896
2022-10-23T06:12:07.591Z,99.993896
2022-10-23T06:13:17.321Z,99.993896
2022-10-23T06:14:26.012Z,99.993896
2022-10-23T06:15:34.740Z,99.993896
2022-10-23T06:16:44.438Z,99.993896
2022-10-23T06:17:53.119Z,99.993896
2022-10-23T06:19:03.099Z,99.993896
2022-10-23T06:20:11.803Z,99.993896
2022-10-23T06:21:20.523Z,99.993896
2022-10-23T06:22:30.245Z,99.993896
2022-10-23T06:23:39.995Z,99.993896
2022-10-23T06:24:48.682Z,99.993896
2022-10-23T06:25:57.486Z,99.993896
2022-10-23T06:27:07.191Z,99.993896
2022-10-23T06:28:17.130Z,99.993896
2022-10-23T06:29:26.566Z,99.993896
2022-10-23T06:30:34.389Z,99.993896
2022-10-23T06:31:44.041Z,99.993896
2022-10-23T06:32:52.731Z,99.993896
2022-10-23T06:34:01.409Z,99.993896
2022-10-23T06:35:10.118Z,99.993896
2022-10-23T06:36:18.867Z,99.993896
2022-10-23T06:37:28.559Z,99.993896
2022-10-23T06:38:36.628Z,99.993896
2022-10-23T06:39:45.294Z,99.993896
2022-10-23T06:40:53.975Z,99.993896
2022-10-23T06:42:02.713Z,99.993896
2022-10-23T06:43:12.449Z,99.993896
2022-10-23T06:44:22.215Z,99.993896
2022-10-23T06:45:30.907Z,99.993896
2022-10-23T06:46:40.603Z,99.993896
2022-10-23T06:47:49.317Z,99.993896
2022-10-23T06:48:57.177Z,99.993896
2022-10-23T06:50:09.504Z,99.993896
2022-10-23T06:51:16.646Z,99.993896
2022-10-23T06:52:45.724Z,99.993896
2022-10-23T06:53:37.109Z,99.993896
2022-10-23T06:54:45.815Z,99.993896
2022-10-23T06:55:55.657Z,99.993896
2022-10-23T06:57:04.199Z,99.786377
2022-10-23T06:58:11.960Z,99.230957
2022-10-23T06:59:21.604Z,98.822021
2022-10-23T07:00:31.328Z,97.857666
2022-10-23T07:01:41.260Z,96.936035
2022-10-23T07:02:49.694Z,96.838379
2022-10-23T07:03:58.386Z,95.874023
2022-10-23T07:05:09.869Z,95.568848
2022-10-23T07:06:18.815Z,95.568848
2022-10-23T07:07:28.539Z,94.805908
2022-10-23T07:08:38.243Z,94.299316
2022-10-23T07:09:47.974Z,94.091797
2022-10-23T07:10:57.731Z,94.195557
2022-10-23T07:12:06.430Z,93.640137
2022-10-23T07:13:15.243Z,93.743896
2022-10-23T07:14:24.887Z,93.029785
2022-10-23T07:15:33.590Z,92.828369
2022-10-23T07:16:42.294Z,92.987061
2022-10-23T07:17:51.976Z,92.785645
2022-10-23T07:19:01.674Z,93.249512
2022-10-23T07:20:10.348Z,92.596436
2022-10-23T07:21:19.030Z,91.943359
2022-10-23T07:22:28.780Z,91.387939
2022-10-23T07:23:38.541Z,91.247559
2022-10-23T07:24:46.229Z,89.923096
2022-10-23T07:25:55.991Z,89.782715
2022-10-23T07:27:04.703Z,89.678955
2022-10-23T07:28:12.384Z,89.434814
2022-10-23T07:29:22.149Z,88.824463
2022-10-23T07:30:30.877Z,88.623047
2022-10-23T07:31:39.649Z,88.116455
2022-10-23T07:32:48.363Z,87.304688
2022-10-23T07:33:58.012Z,86.49292
2022-10-23T07:35:07.781Z,86.999512
2022-10-23T07:36:16.475Z,87.548828
2022-10-23T07:37:25.165Z,88.214111
2022-10-23T07:38:34.929Z,87.243652
2022-10-23T07:39:44.666Z,88.195801
2022-10-23T07:40:53.404Z,88.745117
2022-10-23T07:42:02.227Z,89.660645
2022-10-23T07:43:10.933Z,89.355469
2022-10-23T07:44:21.142Z,89.660645
2022-10-23T07:45:30.357Z,89.562988
2022-10-23T07:46:38.100Z,89.257812
2022-10-23T07:47:47.893Z,89.355469
2022-10-23T07:48:57.590Z,89.562988
2022-10-23T07:50:06.299Z,89.703369
2022-10-23T07:51:15.075Z,90.155029
2022-10-23T07:52:23.731Z,91.174316
2022-10-23T07:53:34.508Z,91.784668
2022-10-23T07:54:43.194Z,91.479492
2022-10-23T07:55:51.919Z,91.577148
2022-10-23T07:57:01.679Z,91.271973
2022-10-23T07:58:10.349Z,91.577148
2022-10-23T07:59:20.134Z,91.430664
2022-10-23T08:00:28.815Z,91.73584
2022-10-23T08:01:37.618Z,91.186523
2022-10-23T08:02:47.224Z,90.942383
2022-10-23T08:03:56.955Z,90.026855
2022-10-23T08:05:05.650Z,89.984131
2022-10-23T08:06:15.400Z,89.782715
2022-10-23T08:07:24.102Z,89.581299
2022-10-23T08:08:33.826Z,89.172363
2022-10-23T08:09:42.473Z,89.63623
2022-10-23T08:10:52.183Z,88.275146
2022-10-23T08:12:01.875Z,88.378906
2022-10-23T08:13:10.592Z,89.190674
2022-10-23T08:14:19.270Z,87.463379
2022-10-23T08:15:29.025Z,87.567139
2022-10-23T08:16:38.745Z,88.317871
2022-10-23T08:17:47.451Z,89.801025
2022-10-23T08:18:57.104Z,89.51416
2022-10-23T08:20:05.798Z,88.458252
2022-10-23T08:21:15.484Z,86.895752
2022-10-23T08:22:25.211Z,85.742188
2022-10-23T08:23:33.937Z,84.527588
2022-10-23T08:24:44.639Z,83.612061
2022-10-23T08:25:54.355Z,84.484863
2022-10-23T08:27:04.073Z,82.4646
2022-10-23T08:28:12.801Z,84.185791
2022-10-23T08:29:22.524Z,83.496094
2022-10-23T08:30:32.258Z,83.660889
2022-10-23T08:31:40.934Z,81.335449
2022-10-23T08:32:48.607Z,80.426025
2022-10-23T08:33:58.328Z,82.244873
2022-10-23T08:35:07.009Z,81.5979
2022-10-23T08:36:15.759Z,81.097412
2022-10-23T08:37:24.475Z,80.285645
2022-10-23T08:38:33.147Z,80.12085
2022-10-23T08:39:42.867Z,80.871582
2022-10-23T08:40:52.571Z,81.37207
2022-10-23T08:42:01.340Z,82.080078
2022-10-23T08:43:10.964Z,83.050537
2022-10-23T08:44:19.658Z,80.895996
2022-10-23T08:45:28.543Z,79.821777
2022-10-23T08:46:38.241Z,81.030273
2022-10-23T08:47:46.920Z,81.5979
2022-10-23T08:48:56.608Z,80.627441
2022-10-23T08:50:04.391Z,81.939697
2022-10-23T08:51:12.043Z,82.006836
2022-10-23T08:52:21.717Z,80.688477
2022-10-23T08:53:31.401Z,81.799316
2022-10-23T08:54:41.084Z,81.866455
2022-10-23T08:55:50.791Z,78.936768
2022-10-23T08:56:59.490Z,79.644775
2022-10-23T08:58:09.209Z,79.504395
2022-10-23T08:59:17.955Z,80.511475
2022-10-23T09:00:25.674Z,80.072021
2022-10-23T09:01:35.497Z,77.752686
2022-10-23T09:02:45.423Z,77.55127
2022-10-23T09:03:53.912Z,78.662109
2022-10-23T09:05:02.633Z,78.924561
2022-10-23T09:06:11.324Z,78.887939
2022-10-23T09:07:21.000Z,76.971436
2022-10-23T09:08:29.704Z,77.514648
2022-10-23T09:09:39.419Z,76.605225
2022-10-23T09:10:50.634Z,78.283691
2022-10-23T09:11:57.817Z,78.082275
2022-10-23T09:13:07.525Z,76.971436
2022-10-23T09:14:16.267Z,77.514648
2022-10-23T09:15:25.958Z,78.723145
2022-10-23T09:16:35.667Z,77.716064
2022-10-23T09:17:44.590Z,78.057861
2022-10-23T09:18:54.085Z,78.155518
2022-10-23T09:20:03.937Z,78.69873
2022-10-23T09:21:12.647Z,79.541016
2022-10-23T09:22:22.348Z,79.846191
2022-10-23T09:23:32.013Z,80.352783
2022-10-23T09:24:40.692Z,81.097412
2022-10-23T09:25:49.466Z,81.463623
2022-10-23T09:26:59.218Z,81.256104
2022-10-23T09:28:09.855Z,81.054688
2022-10-23T09:29:18.540Z,81.524658
2022-10-23T09:30:28.241Z,81.079102
2022-10-23T09:31:37.963Z,80.273438
2022-10-23T09:32:46.699Z,80.377197
2022-10-23T09:33:56.416Z,80.236816
2022-10-23T09:35:05.106Z,80.096436
2022-10-23T09:36:13.810Z,79.492188
2022-10-23T09:37:23.556Z,79.35791
2022-10-23T09:38:33.287Z,78.649902
2022-10-23T09:39:41.954Z,78.24707
2022-10-23T09:40:51.659Z,78.686523
2022-10-23T09:42:00.320Z,77.984619
2022-10-23T09:43:10.130Z,78.24707
2022-10-23T09:44:18.870Z,77.947998
2022-10-23T09:45:27.579Z,78.24707
2022-10-23T09:46:37.340Z,78.649902
2022-10-23T09:47:45.238Z,77.404785
2022-10-23T09:48:54.005Z,77.667236
2022-10-23T09:50:04.684Z,76.226807
2022-10-23T09:51:14.433Z,75.88501
2022-10-23T09:52:23.079Z,75.952148
2022-10-23T09:53:32.805Z,75.476074
2022-10-23T09:54:42.683Z,74.035645
2022-10-23T09:55:52.375Z,72.564697
2022-10-23T09:57:01.028Z,71.929932
2022-10-23T09:58:09.719Z,70.794678
2022-10-23T09:59:19.442Z,70.458984
2022-10-23T10:00:28.151Z,68.658447
2022-10-23T10:01:36.953Z,69.592285
2022-10-23T10:02:45.540Z,70.495605
2022-10-23T10:03:54.241Z,69.793701
2022-10-23T10:05:03.955Z,69.555664
2022-10-23T10:06:11.683Z,69.226074
2022-10-23T10:07:20.389Z,68.389893
2022-10-23T10:08:30.083Z,68.127441
2022-10-23T10:09:38.831Z,69.726562
2022-10-23T10:10:48.638Z,68.792725
2022-10-23T10:11:58.327Z,67.126465
2022-10-23T10:13:10.859Z,69.055176
2022-10-23T10:14:18.750Z,69.024658
2022-10-23T10:15:27.422Z,66.894531
2022-10-23T10:16:36.226Z,67.39502
2022-10-23T10:17:46.952Z,68.157959
2022-10-23T10:18:56.644Z,66.52832
2022-10-23T10:20:06.986Z,66.296387
2022-10-23T10:21:16.014Z,66.131592
2022-10-23T10:22:25.743Z,66.693115
2022-10-23T10:23:35.459Z,68.292236
2022-10-23T10:24:43.134Z,68.62793
2022-10-23T10:25:52.896Z,66.796875
2022-10-23T10:27:02.624Z,65.563965
2022-10-23T10:28:12.339Z,66.064453
2022-10-23T10:29:22.073Z,65.869141
2022-10-23T10:30:31.761Z,65.734863
2022-10-23T10:31:40.429Z,65.606689
2022-10-23T10:32:51.118Z,64.178467
2022-10-23T10:33:59.802Z,64.73999
2022-10-23T10:35:08.543Z,64.73999
2022-10-23T10:36:18.276Z,64.337158
2022-10-23T10:37:27.909Z,64.63623
2022-10-23T10:38:37.618Z,65.106201
2022-10-23T10:39:47.341Z,65.9729
2022-10-23T10:40:56.056Z,62.512207
2022-10-23T10:42:05.789Z,64.239502
2022-10-23T10:43:14.471Z,64.508057
2022-10-23T10:44:23.148Z,64.575195
2022-10-23T10:45:32.838Z,63.720703
2022-10-23T10:46:42.570Z,62.29248
2022-10-23T10:47:52.277Z,61.566162
2022-10-23T10:49:01.974Z,59.94873
2022-10-23T10:50:11.683Z,59.875488
2022-10-23T10:51:21.374Z,60.699463
2022-10-23T10:52:29.100Z,61.59668
2022-10-23T10:53:37.799Z,60.473633
2022-10-23T10:54:47.492Z,61.071777
2022-10-23T10:55:56.240Z,60.375977
2022-10-23T10:57:05.967Z,59.47876
2022-10-23T10:58:15.787Z,61.395264
2022-10-23T10:59:25.474Z,61.468506
2022-10-23T11:00:35.249Z,60.772705
2022-10-23T11:01:44.110Z,60.870361
2022-10-23T11:02:52.699Z,60.943604
2022-10-23T11:04:02.466Z,61.04126
2022-10-23T11:05:11.313Z,60.247803
2022-10-23T11:06:21.078Z,59.94873
2022-10-23T11:07:29.794Z,60.247803
2022-10-23T11:08:44.356Z,61.138916
2022-10-23T11:09:50.147Z,60.015869
2022-10-23T11:10:58.831Z,59.423828
2022-10-23T11:12:06.547Z,59.820557
2022-10-23T11:13:16.277Z,58.685303
2022-10-23T11:14:24.927Z,59.509277
2022-10-23T11:15:33.657Z,61.126709
2022-10-23T11:16:43.407Z,61.157227
2022-10-23T11:17:51.106Z,61.090088
2022-10-23T11:19:00.796Z,61.645508
2022-10-23T11:20:09.493Z,62.774658
2022-10-23T11:21:19.224Z,63.07373
2022-10-23T11:22:27.916Z,63.970947
2022-10-23T11:23:36.594Z,64.038086
2022-10-23T11:24:48.135Z,63.708496
2022-10-23T11:25:56.945Z,62.780762
2022-10-23T11:27:05.713Z,62.780762
2022-10-23T11:28:15.393Z,63.348389
2022-10-23T11:29:25.106Z,61.254883
2022-10-23T11:30:34.794Z,62.445068
2022-10-23T11:31:43.499Z,64.239502
2022-10-23T11:32:52.235Z,64.73999
2022-10-23T11:34:01.894Z,64.007568
2022-10-23T11:35:10.593Z,63.677979
2022-10-23T11:36:19.338Z,64.245605
2022-10-23T11:37:28.017Z,63.153076
2022-10-23T11:38:36.760Z,63.317871
2022-10-23T11:39:46.462Z,62.921143
2022-10-23T11:40:54.142Z,62.554932
2022-10-23T11:42:01.851Z,63.220215
2022-10-23T11:43:11.558Z,62.384033
2022-10-23T11:44:20.285Z,64.208984
2022-10-23T11:45:30.041Z,64.904785
2022-10-23T11:46:39.740Z,64.807129
2022-10-23T11:47:48.423Z,64.672852
2022-10-23T11:48:58.377Z,64.147949
2022-10-23T11:50:07.041Z,64.147949
2022-10-23T11:51:16.790Z,63.018799
2022-10-23T11:52:26.555Z,61.486816
2022-10-23T11:53:35.226Z,62.683105
2022-10-23T11:54:44.033Z,62.585449
2022-10-23T11:55:52.782Z,63.378906
2022-10-23T11:57:01.462Z,61.517334
2022-10-23T11:58:12.141Z,62.072754
2022-10-23T11:59:20.838Z,63.873291
2022-10-23T12:00:28.515Z,63.970947
2022-10-23T12:01:38.447Z,64.367676
2022-10-23T12:02:48.277Z,64.099121
2022-10-23T12:03:57.723Z,64.398193
2022-10-23T12:05:06.520Z,64.501953
2022-10-23T12:06:15.377Z,64.172363
2022-10-23T12:07:25.196Z,63.903809
2022-10-23T12:08:31.929Z,64.099121
2022-10-23T12:09:39.620Z,64.801025
2022-10-23T12:10:49.290Z,65.167236
2022-10-23T12:11:57.993Z,64.935303
2022-10-23T12:13:07.710Z,63.537598
2022-10-23T12:14:16.447Z,64.605713
2022-10-23T12:15:25.133Z,63.647461
2022-10-23T12:16:33.852Z,62.481689
2022-10-23T12:17:41.835Z,62.054443
2022-10-23T12:18:49.231Z,62.481689
2022-10-23T12:19:58.940Z,63.049316
2022-10-23T12:21:08.625Z,62.493896
2022-10-23T12:22:17.388Z,61.138916
2022-10-23T12:23:26.093Z,60.046387
2022-10-23T12:24:34.852Z,60.217285
2022-10-23T12:25:44.552Z,60.314941
2022-10-23T12:26:52.286Z,61.138916
2022-10-23T12:28:01.041Z,61.242676
2022-10-23T12:29:10.733Z,61.437988
2022-10-23T12:30:19.514Z,60.943604
2022-10-23T12:31:29.212Z,61.169434
2022-10-23T12:32:38.931Z,61.627197
2022-10-23T12:33:47.639Z,63.183594
2022-10-23T12:34:57.293Z,64.776611
2022-10-23T12:36:06.043Z,64.373779
2022-10-23T12:37:13.710Z,64.971924
2022-10-23T12:38:23.412Z,64.373779
2022-10-23T12:39:34.140Z,64.672852
2022-10-23T12:40:43.869Z,65.673828
2022-10-23T12:41:52.597Z,64.575195
2022-10-23T12:43:01.352Z,64.971924
2022-10-23T12:44:11.038Z,65.472412
2022-10-23T12:45:18.783Z,65.673828
2022-10-23T12:46:28.459Z,65.374756
2022-10-23T12:48:47.974Z,65.441895
2022-10-23T12:49:56.721Z,65.045166
2022-10-23T12:51:07.359Z,64.477539
2022-10-23T12:52:17.053Z,65.643311
2022-10-23T12:53:26.789Z,64.575195
2022-10-23T12:54:34.453Z,64.178467
2022-10-23T12:55:42.127Z,64.709473
2022-10-23T12:56:51.836Z,65.008545
2022-10-23T12:58:00.544Z,64.605713
2022-10-23T12:59:09.243Z,65.039062
2022-10-23T13:00:17.925Z,65.563965
2022-10-23T13:01:27.693Z,66.296387
2022-10-23T13:02:37.433Z,66.497803
2022-10-23T13:03:44.003Z,65.667725
2022-10-23T13:04:52.728Z,65.637207
2022-10-23T13:06:02.505Z,64.605713
2022-10-23T13:07:11.148Z,64.4104
2022-10-23T13:08:20.887Z,64.178467
2022-10-23T13:09:29.567Z,64.447021
2022-10-23T13:10:38.263Z,63.348389
2022-10-23T13:11:47.999Z,63.61084
2022-10-23T13:12:55.674Z,65.008545